الصفحة الرئيسية
METAR-TAF:

METAR-TAF

مطار :

مطار الرشيدية مولاي علي الشريف

الراشيدية, المغرب

دائرة عرض: 31-56N, خط طول: 004-24W, ارتفاع: 1034 متر

مراقبة الطقس الحالي

تاريخ ووقت الإصدار 42 دقيقة قبل الساعة 01:00UTC
ريح 2 عقدةمن اتجاهات متغيرة
درجة الحرارة 7°درجة مئوية
الرطوبة 57%
ضغط 1019 hPa
الرؤية 10 كم أو أكثر
الغيوم لا تقل 1500 م ولا وجود لمزنة ركامية السحاب الأسود

METAR: GMFK 230100Z VRB02KT CAVOK 07/M01 Q1019 NOSIG

زمن: 02:42 (01:42 UTC)

توقعات

تاريخ ووقت الإصدار 2ساعات و 42 دقيقة قبل الساعة 23:00UTC
التوقعات صالحة من23 الساعة 00 UTC إلى 24 الساعة 06 UTC
ريح 2 عقدةمن اتجاهات متغيرة
الرؤية 10 كم أو أكثر
غيوم قليلة على ارتفاع 2600 قدم
أصبح
من 23 الساعة 13 UTC إلى 23 الساعة 15 UTC
ريح 12 عقدة من الجنوب الغربي
أصبح
من 23 الساعة 18 UTC إلى 23 الساعة 20 UTC
ريح 5 عقدة من الغرب/الشمال الغربي

TAF: GMFK 222300Z 2300/2406 VRB02KT 9999 FEW026 BECMG 2313/2315 22012KT BECMG 2318/2320 30005KT

أرصاد الطقس والتوقعات من أكثر من 4000 مطار (تقارير الطقس للمطار METAR والتنبؤ بالطقس بالمطارTAF).

المحطات المتاحة هي النقط الصفراء والحمراء على الخريطة.

حرك المؤشر فوق النقطة لمعرفة اسم المحطة.

ثم انقر لمعرفة أرصاد وتوقعات الطقس.

لتغيير الخارطة: اضغط على الأزرار الخضراء مع رمز الصليب الأسود للتكبير. على الزر الأخضر مع شرطة للتصغير، أو على الأسهم الخضراء للخرائط المجاورة.


METAR-TAF: